Terminal Aerodrome Forecast
Issued by NWS

Home | Current Version | Previous Version | Text Only | Print | Product List | Glossary On
Versions: 1 2 3 4 5 6 7 8 9 10 11 12 13 14
794
FTUS46 KSEW 281720
TAFOLM
TAF
KOLM 281720Z 2818/2918 VRB04KT P6SM SKC
     FM290900 00000KT P6SM SCT010
     FM291000 20004KT 4SM BR OVC006
     FM291200 19005KT 3SM BR OVC003
     FM291700 21005KT 5SM BR BKN010=

USA.gov is the U.S. government's official web portal to all federal, state and local government web resources and services.